sensor_id;sensor_type;location;lat;lon;timestamp;temperature;humidity
2999;DHT22;1509;51.964;7.628;2022-12-20T00:00:18;10.00;99.90
2999;DHT22;1509;51.964;7.628;2022-12-20T00:02:44;10.00;99.90
2999;DHT22;1509;51.964;7.628;2022-12-20T00:05:09;9.90;99.90
2999;DHT22;1509;51.964;7.628;2022-12-20T00:07:35;9.90;99.90
2999;DHT22;1509;51.964;7.628;2022-12-20T00:10:00;10.00;99.90
2999;DHT22;1509;51.964;7.628;2022-12-20T00:12:26;10.10;99.90
2999;DHT22;1509;51.964;7.628;2022-12-20T00:14:51;10.10;99.90
2999;DHT22;1509;51.964;7.628;2022-12-20T00:17:17;10.10;99.90
2999;DHT22;1509;51.964;7.628;2022-12-20T00:19:43;10.20;99.90
2999;DHT22;1509;51.964;7.628;2022-12-20T00:22:09;10.20;99.90
2999;DHT22;1509;51.964;7.628;2022-12-20T00:24:35;10.20;99.90
2999;DHT22;1509;51.964;7.628;2022-12-20T00:27:01;10.20;99.90
2999;DHT22;1509;51.964;7.628;2022-12-20T00:29:26;10.30;99.90
2999;DHT22;1509;51.964;7.628;2022-12-20T00:31:52;10.30;99.90
2999;DHT22;1509;51.964;7.628;2022-12-20T00:34:17;10.30;99.90
2999;DHT22;1509;51.964;7.628;2022-12-20T00:36:43;10.30;99.90
2999;DHT22;1509;51.964;7.628;2022-12-20T00:39:08;10.30;99.90
2999;DHT22;1509;51.964;7.628;2022-12-20T00:41:34;10.30;99.90
2999;DHT22;1509;51.964;7.628;2022-12-20T00:44:02;10.30;99.90
2999;DHT22;1509;51.964;7.628;2022-12-20T00:46:28;10.40;99.90
2999;DHT22;1509;51.964;7.628;2022-12-20T00:48:55;10.40;99.90
2999;DHT22;1509;51.964;7.628;2022-12-20T00:51:24;10.30;99.90
2999;DHT22;1509;51.964;7.628;2022-12-20T00:53:50;10.30;99.90
2999;DHT22;1509;51.964;7.628;2022-12-20T00:56:17;10.30;99.90
2999;DHT22;1509;51.964;7.628;2022-12-20T00:58:43;10.20;99.90
2999;DHT22;1509;51.964;7.628;2022-12-20T01:01:23;10.30;99.90
2999;DHT22;1509;51.964;7.628;2022-12-20T01:03:50;10.30;99.90
2999;DHT22;1509;51.964;7.628;2022-12-20T01:06:16;10.30;99.90
2999;DHT22;1509;51.964;7.628;2022-12-20T01:08:41;10.30;99.90
2999;DHT22;1509;51.964;7.628;2022-12-20T01:11:19;10.30;99.90
2999;DHT22;1509;51.964;7.628;2022-12-20T01:13:49;10.30;99.90
2999;DHT22;1509;51.964;7.628;2022-12-20T01:16:21;10.40;99.90
2999;DHT22;1509;51.964;7.628;2022-12-20T01:18:47;10.30;99.90
2999;DHT22;1509;51.964;7.628;2022-12-20T01:21:14;10.50;99.90
2999;DHT22;1509;51.964;7.628;2022-12-20T01:23:41;10.40;99.90
2999;DHT22;1509;51.964;7.628;2022-12-20T01:26:10;10.50;99.90
2999;DHT22;1509;51.964;7.628;2022-12-20T01:28:37;10.50;99.90
2999;DHT22;1509;51.964;7.628;2022-12-20T01:31:08;10.60;99.90
2999;DHT22;1509;51.964;7.628;2022-12-20T01:33:35;10.70;99.90
2999;DHT22;1509;51.964;7.628;2022-12-20T01:36:06;10.60;99.90
2999;DHT22;1509;51.964;7.628;2022-12-20T01:38:32;10.70;99.90
2999;DHT22;1509;51.964;7.628;2022-12-20T01:40:58;10.70;99.90
2999;DHT22;1509;51.964;7.628;2022-12-20T01:43:28;10.80;99.90
2999;DHT22;1509;51.964;7.628;2022-12-20T01:46:09;10.80;99.90
2999;DHT22;1509;51.964;7.628;2022-12-20T01:48:34;10.80;99.90
2999;DHT22;1509;51.964;7.628;2022-12-20T01:51:00;10.80;99.90
2999;DHT22;1509;51.964;7.628;2022-12-20T01:53:26;10.90;99.90
2999;DHT22;1509;51.964;7.628;2022-12-20T01:55:52;10.90;99.90
2999;DHT22;1509;51.964;7.628;2022-12-20T01:58:20;10.90;99.90
2999;DHT22;1509;51.964;7.628;2022-12-20T02:00:46;10.90;99.90
2999;DHT22;1509;51.964;7.628;2022-12-20T02:03:13;10.90;99.90
2999;DHT22;1509;51.964;7.628;2022-12-20T02:05:45;10.80;99.90
2999;DHT22;1509;51.964;7.628;2022-12-20T02:08:13;10.80;99.90
2999;DHT22;1509;51.964;7.628;2022-12-20T02:16:29;11.00;99.90
2999;DHT22;1509;51.964;7.628;2022-12-20T02:19:44;10.90;99.90
2999;DHT22;1509;51.964;7.628;2022-12-20T02:25:26;10.90;99.90
2999;DHT22;1509;51.964;7.628;2022-12-20T02:28:03;10.90;99.90
2999;DHT22;1509;51.964;7.628;2022-12-20T02:30:36;10.90;99.90
2999;DHT22;1509;51.964;7.628;2022-12-20T02:33:06;11.00;99.90
2999;DHT22;1509;51.964;7.628;2022-12-20T02:35:34;10.90;99.90
2999;DHT22;1509;51.964;7.628;2022-12-20T02:38:22;10.80;99.90
2999;DHT22;1509;51.964;7.628;2022-12-20T02:40:51;10.70;99.90
2999;DHT22;1509;51.964;7.628;2022-12-20T02:43:18;10.70;99.90
2999;DHT22;1509;51.964;7.628;2022-12-20T02:46:04;10.60;99.90
2999;DHT22;1509;51.964;7.628;2022-12-20T02:48:31;10.60;99.90
2999;DHT22;1509;51.964;7.628;2022-12-20T02:50:59;10.50;99.90
2999;DHT22;1509;51.964;7.628;2022-12-20T02:53:27;10.50;99.90
2999;DHT22;1509;51.964;7.628;2022-12-20T02:56:12;10.60;99.90
2999;DHT22;1509;51.964;7.628;2022-12-20T02:58:50;10.50;99.90
2999;DHT22;1509;51.964;7.628;2022-12-20T03:01:35;10.50;99.90
2999;DHT22;1509;51.964;7.628;2022-12-20T03:04:02;10.50;99.90
2999;DHT22;1509;51.964;7.628;2022-12-20T03:06:28;10.50;99.90
2999;DHT22;1509;51.964;7.628;2022-12-20T03:08:55;10.50;99.90
2999;DHT22;1509;51.964;7.628;2022-12-20T03:11:21;10.50;99.90
2999;DHT22;1509;51.964;7.628;2022-12-20T03:13:49;10.50;99.90
2999;DHT22;1509;51.964;7.628;2022-12-20T03:16:14;10.60;99.90
2999;DHT22;1509;51.964;7.628;2022-12-20T03:18:40;10.60;99.90
2999;DHT22;1509;51.964;7.628;2022-12-20T03:21:05;10.70;99.90
2999;DHT22;1509;51.964;7.628;2022-12-20T03:23:31;10.70;99.90
2999;DHT22;1509;51.964;7.628;2022-12-20T03:25:57;10.70;99.90
2999;DHT22;1509;51.964;7.628;2022-12-20T03:28:23;10.70;99.90
2999;DHT22;1509;51.964;7.628;2022-12-20T03:30:48;10.90;99.90
2999;DHT22;1509;51.964;7.628;2022-12-20T03:33:14;10.80;99.90
2999;DHT22;1509;51.964;7.628;2022-12-20T03:35:40;10.80;99.90
2999;DHT22;1509;51.964;7.628;2022-12-20T03:38:06;10.80;99.90
2999;DHT22;1509;51.964;7.628;2022-12-20T03:40:31;10.90;99.90
2999;DHT22;1509;51.964;7.628;2022-12-20T03:42:57;10.90;99.90
2999;DHT22;1509;51.964;7.628;2022-12-20T03:45:23;10.90;99.90
2999;DHT22;1509;51.964;7.628;2022-12-20T03:47:48;10.90;99.90
2999;DHT22;1509;51.964;7.628;2022-12-20T03:50:14;10.70;99.90
2999;DHT22;1509;51.964;7.628;2022-12-20T03:52:39;10.70;99.90
2999;DHT22;1509;51.964;7.628;2022-12-20T03:55:06;10.60;99.90
2999;DHT22;1509;51.964;7.628;2022-12-20T03:57:31;10.70;99.90
2999;DHT22;1509;51.964;7.628;2022-12-20T03:59:57;10.70;99.90
2999;DHT22;1509;51.964;7.628;2022-12-20T04:02:23;10.70;99.90
2999;DHT22;1509;51.964;7.628;2022-12-20T04:04:48;10.60;99.90
2999;DHT22;1509;51.964;7.628;2022-12-20T04:07:14;10.60;99.90
2999;DHT22;1509;51.964;7.628;2022-12-20T04:09:40;10.60;99.90
2999;DHT22;1509;51.964;7.628;2022-12-20T04:12:05;10.70;99.90
2999;DHT22;1509;51.964;7.628;2022-12-20T04:14:31;10.70;99.90
2999;DHT22;1509;51.964;7.628;2022-12-20T04:16:57;10.70;99.90
2999;DHT22;1509;51.964;7.628;2022-12-20T04:19:23;10.80;99.90
2999;DHT22;1509;51.964;7.628;2022-12-20T04:21:49;10.70;99.90
2999;DHT22;1509;51.964;7.628;2022-12-20T04:24:14;10.70;99.90
2999;DHT22;1509;51.964;7.628;2022-12-20T04:26:40;10.80;99.90
2999;DHT22;1509;51.964;7.628;2022-12-20T04:29:06;10.80;99.90
2999;DHT22;1509;51.964;7.628;2022-12-20T04:31:31;10.70;99.90
2999;DHT22;1509;51.964;7.628;2022-12-20T04:33:57;10.70;99.90
2999;DHT22;1509;51.964;7.628;2022-12-20T04:36:22;10.70;99.90
2999;DHT22;1509;51.964;7.628;2022-12-20T04:38:48;10.70;99.90
2999;DHT22;1509;51.964;7.628;2022-12-20T04:41:14;10.60;99.90
2999;DHT22;1509;51.964;7.628;2022-12-20T04:43:51;10.60;99.90
2999;DHT22;1509;51.964;7.628;2022-12-20T04:46:18;10.70;99.90
2999;DHT22;1509;51.964;7.628;2022-12-20T04:48:44;10.60;99.90
2999;DHT22;1509;51.964;7.628;2022-12-20T04:51:09;10.50;99.90
2999;DHT22;1509;51.964;7.628;2022-12-20T04:53:35;10.50;99.90
2999;DHT22;1509;51.964;7.628;2022-12-20T04:56:21;10.50;99.90
2999;DHT22;1509;51.964;7.628;2022-12-20T04:58:49;10.50;99.90
2999;DHT22;1509;51.964;7.628;2022-12-20T05:01:16;10.50;99.90
2999;DHT22;1509;51.964;7.628;2022-12-20T05:03:42;10.50;99.90
2999;DHT22;1509;51.964;7.628;2022-12-20T05:06:11;10.60;99.90
2999;DHT22;1509;51.964;7.628;2022-12-20T05:08:37;10.60;99.90
2999;DHT22;1509;51.964;7.628;2022-12-20T05:11:04;10.60;99.90
2999;DHT22;1509;51.964;7.628;2022-12-20T05:13:30;10.70;99.90
2999;DHT22;1509;51.964;7.628;2022-12-20T05:15:56;10.70;99.90
2999;DHT22;1509;51.964;7.628;2022-12-20T05:18:22;10.70;99.90
2999;DHT22;1509;51.964;7.628;2022-12-20T05:20:49;10.70;99.90
2999;DHT22;1509;51.964;7.628;2022-12-20T05:23:35;10.70;99.90
2999;DHT22;1509;51.964;7.628;2022-12-20T05:26:19;10.70;99.90
2999;DHT22;1509;51.964;7.628;2022-12-20T05:28:45;10.70;99.90
2999;DHT22;1509;51.964;7.628;2022-12-20T05:31:10;10.60;99.90
2999;DHT22;1509;51.964;7.628;2022-12-20T05:33:36;10.70;99.90
2999;DHT22;1509;51.964;7.628;2022-12-20T05:36:02;10.60;99.90
2999;DHT22;1509;51.964;7.628;2022-12-20T05:38:28;10.60;99.90
2999;DHT22;1509;51.964;7.628;2022-12-20T05:40:53;10.60;99.90
2999;DHT22;1509;51.964;7.628;2022-12-20T05:43:19;10.70;99.90
2999;DHT22;1509;51.964;7.628;2022-12-20T05:45:49;10.60;99.90
2999;DHT22;1509;51.964;7.628;2022-12-20T05:48:16;10.60;99.90
2999;DHT22;1509;51.964;7.628;2022-12-20T05:50:43;10.50;99.90
2999;DHT22;1509;51.964;7.628;2022-12-20T05:53:10;10.40;99.90
2999;DHT22;1509;51.964;7.628;2022-12-20T05:55:36;10.60;99.90
2999;DHT22;1509;51.964;7.628;2022-12-20T05:58:05;10.60;99.90
2999;DHT22;1509;51.964;7.628;2022-12-20T06:00:30;10.50;99.90
2999;DHT22;1509;51.964;7.628;2022-12-20T06:02:56;10.60;99.90
2999;DHT22;1509;51.964;7.628;2022-12-20T06:05:21;10.60;99.90
2999;DHT22;1509;51.964;7.628;2022-12-20T06:07:47;10.50;99.90
2999;DHT22;1509;51.964;7.628;2022-12-20T06:10:13;10.50;99.90
2999;DHT22;1509;51.964;7.628;2022-12-20T06:12:39;10.50;99.90
2999;DHT22;1509;51.964;7.628;2022-12-20T06:15:04;10.60;99.90
2999;DHT22;1509;51.964;7.628;2022-12-20T06:17:30;10.60;99.90
2999;DHT22;1509;51.964;7.628;2022-12-20T06:19:56;10.60;99.90
2999;DHT22;1509;51.964;7.628;2022-12-20T06:22:21;10.50;99.90
2999;DHT22;1509;51.964;7.628;2022-12-20T06:24:47;10.60;99.90
2999;DHT22;1509;51.964;7.628;2022-12-20T06:27:12;10.50;99.90
2999;DHT22;1509;51.964;7.628;2022-12-20T06:29:38;10.50;99.90
2999;DHT22;1509;51.964;7.628;2022-12-20T06:32:05;10.60;99.90
2999;DHT22;1509;51.964;7.628;2022-12-20T06:34:31;10.60;99.90
2999;DHT22;1509;51.964;7.628;2022-12-20T06:36:56;10.50;99.90
2999;DHT22;1509;51.964;7.628;2022-12-20T06:39:22;10.60;99.90
2999;DHT22;1509;51.964;7.628;2022-12-20T06:41:48;10.60;99.90
2999;DHT22;1509;51.964;7.628;2022-12-20T06:44:13;10.50;99.90
2999;DHT22;1509;51.964;7.628;2022-12-20T06:46:39;10.60;99.90
2999;DHT22;1509;51.964;7.628;2022-12-20T06:49:04;10.50;99.90
2999;DHT22;1509;51.964;7.628;2022-12-20T06:51:30;10.50;99.90
2999;DHT22;1509;51.964;7.628;2022-12-20T06:53:55;10.50;99.90
2999;DHT22;1509;51.964;7.628;2022-12-20T06:56:21;10.60;99.90
2999;DHT22;1509;51.964;7.628;2022-12-20T06:58:47;10.60;99.90
2999;DHT22;1509;51.964;7.628;2022-12-20T07:01:12;10.60;99.90
2999;DHT22;1509;51.964;7.628;2022-12-20T07:03:38;10.50;99.90
2999;DHT22;1509;51.964;7.628;2022-12-20T07:06:03;10.60;99.90
2999;DHT22;1509;51.964;7.628;2022-12-20T07:08:29;10.60;99.90
2999;DHT22;1509;51.964;7.628;2022-12-20T07:10:55;10.60;99.90
2999;DHT22;1509;51.964;7.628;2022-12-20T07:13:21;10.60;99.90
2999;DHT22;1509;51.964;7.628;2022-12-20T07:15:47;10.60;99.90
2999;DHT22;1509;51.964;7.628;2022-12-20T07:18:12;10.60;99.90
2999;DHT22;1509;51.964;7.628;2022-12-20T07:20:38;10.60;99.90
2999;DHT22;1509;51.964;7.628;2022-12-20T07:23:03;10.50;99.90
2999;DHT22;1509;51.964;7.628;2022-12-20T07:25:29;10.70;99.90
2999;DHT22;1509;51.964;7.628;2022-12-20T07:27:55;10.70;99.90
2999;DHT22;1509;51.964;7.628;2022-12-20T07:30:21;10.70;99.90
2999;DHT22;1509;51.964;7.628;2022-12-20T07:32:47;10.60;99.90
2999;DHT22;1509;51.964;7.628;2022-12-20T07:35:14;10.70;99.90
2999;DHT22;1509;51.964;7.628;2022-12-20T07:37:40;10.70;99.90
2999;DHT22;1509;51.964;7.628;2022-12-20T07:40:06;10.70;99.90
2999;DHT22;1509;51.964;7.628;2022-12-20T07:42:33;10.70;99.90
2999;DHT22;1509;51.964;7.628;2022-12-20T07:45:02;10.80;99.90
2999;DHT22;1509;51.964;7.628;2022-12-20T07:47:28;10.70;99.90
2999;DHT22;1509;51.964;7.628;2022-12-20T07:49:54;10.80;99.90
2999;DHT22;1509;51.964;7.628;2022-12-20T07:52:22;10.60;99.90
2999;DHT22;1509;51.964;7.628;2022-12-20T07:54:53;10.70;99.90
2999;DHT22;1509;51.964;7.628;2022-12-20T07:57:24;10.70;99.90
2999;DHT22;1509;51.964;7.628;2022-12-20T07:59:54;10.80;99.90
2999;DHT22;1509;51.964;7.628;2022-12-20T08:02:27;10.80;99.90
2999;DHT22;1509;51.964;7.628;2022-12-20T08:04:55;10.80;99.90
2999;DHT22;1509;51.964;7.628;2022-12-20T08:07:22;10.80;99.90
2999;DHT22;1509;51.964;7.628;2022-12-20T08:09:47;10.80;99.90
2999;DHT22;1509;51.964;7.628;2022-12-20T08:12:15;10.90;99.90
2999;DHT22;1509;51.964;7.628;2022-12-20T08:14:43;10.90;99.90
2999;DHT22;1509;51.964;7.628;2022-12-20T08:17:09;10.90;99.90
2999;DHT22;1509;51.964;7.628;2022-12-20T08:19:36;11.00;99.90
2999;DHT22;1509;51.964;7.628;2022-12-20T08:22:05;11.10;99.90
2999;DHT22;1509;51.964;7.628;2022-12-20T08:24:32;11.10;99.90
2999;DHT22;1509;51.964;7.628;2022-12-20T08:26:58;11.00;99.90
2999;DHT22;1509;51.964;7.628;2022-12-20T08:29:24;11.10;99.90
2999;DHT22;1509;51.964;7.628;2022-12-20T08:31:50;11.20;99.90
2999;DHT22;1509;51.964;7.628;2022-12-20T08:34:15;11.20;99.90
2999;DHT22;1509;51.964;7.628;2022-12-20T08:36:41;11.30;99.90
2999;DHT22;1509;51.964;7.628;2022-12-20T08:39:07;11.20;99.90
2999;DHT22;1509;51.964;7.628;2022-12-20T08:41:34;11.20;99.90
2999;DHT22;1509;51.964;7.628;2022-12-20T08:44:01;11.30;99.90
2999;DHT22;1509;51.964;7.628;2022-12-20T08:46:27;11.30;99.90
2999;DHT22;1509;51.964;7.628;2022-12-20T08:48:53;11.50;99.90
2999;DHT22;1509;51.964;7.628;2022-12-20T08:51:18;11.60;99.90
2999;DHT22;1509;51.964;7.628;2022-12-20T08:53:44;11.50;99.90
2999;DHT22;1509;51.964;7.628;2022-12-20T08:56:12;11.60;99.90
2999;DHT22;1509;51.964;7.628;2022-12-20T08:58:39;11.70;99.90
2999;DHT22;1509;51.964;7.628;2022-12-20T09:01:07;11.80;99.90
2999;DHT22;1509;51.964;7.628;2022-12-20T09:03:34;11.90;99.90
2999;DHT22;1509;51.964;7.628;2022-12-20T09:06:00;12.00;99.90
2999;DHT22;1509;51.964;7.628;2022-12-20T09:08:29;12.10;99.90
2999;DHT22;1509;51.964;7.628;2022-12-20T09:11:13;12.20;99.90
2999;DHT22;1509;51.964;7.628;2022-12-20T09:13:44;12.20;99.90
2999;DHT22;1509;51.964;7.628;2022-12-20T09:16:12;12.10;99.90
2999;DHT22;1509;51.964;7.628;2022-12-20T09:18:37;12.00;99.90
2999;DHT22;1509;51.964;7.628;2022-12-20T09:21:05;12.00;99.90
2999;DHT22;1509;51.964;7.628;2022-12-20T09:23:32;11.90;99.90
2999;DHT22;1509;51.964;7.628;2022-12-20T09:26:07;12.00;99.90
2999;DHT22;1509;51.964;7.628;2022-12-20T09:28:33;12.10;99.90
2999;DHT22;1509;51.964;7.628;2022-12-20T09:31:00;12.00;99.90
2999;DHT22;1509;51.964;7.628;2022-12-20T09:33:26;12.00;99.90
2999;DHT22;1509;51.964;7.628;2022-12-20T09:35:53;12.00;99.90
2999;DHT22;1509;51.964;7.628;2022-12-20T09:38:18;12.10;99.90
2999;DHT22;1509;51.964;7.628;2022-12-20T09:40:49;12.00;99.90
2999;DHT22;1509;51.964;7.628;2022-12-20T09:43:16;12.00;99.90
2999;DHT22;1509;51.964;7.628;2022-12-20T09:45:44;12.10;99.90
2999;DHT22;1509;51.964;7.628;2022-12-20T09:48:40;12.10;99.90
2999;DHT22;1509;51.964;7.628;2022-12-20T09:56:26;12.10;99.90
2999;DHT22;1509;51.964;7.628;2022-12-20T09:59:02;12.20;99.90
2999;DHT22;1509;51.964;7.628;2022-12-20T10:01:34;12.20;99.90
2999;DHT22;1509;51.964;7.628;2022-12-20T10:04:03;12.20;99.90
2999;DHT22;1509;51.964;7.628;2022-12-20T10:15:20;12.30;99.90
2999;DHT22;1509;51.964;7.628;2022-12-20T10:23:39;12.50;99.90
2999;DHT22;1509;51.964;7.628;2022-12-20T10:26:12;12.40;99.90
2999;DHT22;1509;51.964;7.628;2022-12-20T10:28:39;12.40;99.90
2999;DHT22;1509;51.964;7.628;2022-12-20T10:31:12;12.40;99.90
2999;DHT22;1509;51.964;7.628;2022-12-20T10:33:39;12.30;99.90
2999;DHT22;1509;51.964;7.628;2022-12-20T10:36:26;12.10;99.90
2999;DHT22;1509;51.964;7.628;2022-12-20T10:38:55;12.20;99.90
2999;DHT22;1509;51.964;7.628;2022-12-20T10:41:26;12.20;99.90
2999;DHT22;1509;51.964;7.628;2022-12-20T10:44:01;12.10;99.90
2999;DHT22;1509;51.964;7.628;2022-12-20T10:46:50;12.10;99.90
2999;DHT22;1509;51.964;7.628;2022-12-20T10:49:29;12.00;99.90
2999;DHT22;1509;51.964;7.628;2022-12-20T10:52:12;12.00;99.90
2999;DHT22;1509;51.964;7.628;2022-12-20T10:54:43;12.00;99.90
2999;DHT22;1509;51.964;7.628;2022-12-20T10:57:19;12.00;99.90
2999;DHT22;1509;51.964;7.628;2022-12-20T10:59:55;12.00;99.90
2999;DHT22;1509;51.964;7.628;2022-12-20T11:02:28;12.10;99.90
2999;DHT22;1509;51.964;7.628;2022-12-20T11:05:02;12.20;99.90
2999;DHT22;1509;51.964;7.628;2022-12-20T11:07:30;12.10;99.90
2999;DHT22;1509;51.964;7.628;2022-12-20T11:10:02;12.20;99.90
2999;DHT22;1509;51.964;7.628;2022-12-20T11:12:28;12.10;99.90
2999;DHT22;1509;51.964;7.628;2022-12-20T11:15:19;12.10;99.90
2999;DHT22;1509;51.964;7.628;2022-12-20T11:17:51;12.10;99.90
2999;DHT22;1509;51.964;7.628;2022-12-20T11:20:37;12.10;99.90
2999;DHT22;1509;51.964;7.628;2022-12-20T11:29:16;12.20;99.90
2999;DHT22;1509;51.964;7.628;2022-12-20T11:48:16;12.30;99.90
2999;DHT22;1509;51.964;7.628;2022-12-20T11:53:37;12.30;99.90
2999;DHT22;1509;51.964;7.628;2022-12-20T11:56:35;12.30;99.90
2999;DHT22;1509;51.964;7.628;2022-12-20T12:01:54;12.30;99.90
2999;DHT22;1509;51.964;7.628;2022-12-20T12:04:25;12.30;99.90
2999;DHT22;1509;51.964;7.628;2022-12-20T12:07:05;12.40;99.90
2999;DHT22;1509;51.964;7.628;2022-12-20T12:09:45;12.30;99.90
2999;DHT22;1509;51.964;7.628;2022-12-20T12:12:31;12.30;99.90
2999;DHT22;1509;51.964;7.628;2022-12-20T12:15:02;12.20;99.90
2999;DHT22;1509;51.964;7.628;2022-12-20T12:17:49;12.30;99.90
2999;DHT22;1509;51.964;7.628;2022-12-20T12:20:22;12.30;99.90
2999;DHT22;1509;51.964;7.628;2022-12-20T12:22:54;12.20;99.90
2999;DHT22;1509;51.964;7.628;2022-12-20T12:25:21;12.20;99.90
2999;DHT22;1509;51.964;7.628;2022-12-20T12:27:46;12.20;99.90
2999;DHT22;1509;51.964;7.628;2022-12-20T12:30:14;12.20;99.90
2999;DHT22;1509;51.964;7.628;2022-12-20T12:32:52;12.20;99.90
2999;DHT22;1509;51.964;7.628;2022-12-20T12:40:40;12.00;99.90
2999;DHT22;1509;51.964;7.628;2022-12-20T12:46:07;12.00;99.90
2999;DHT22;1509;51.964;7.628;2022-12-20T12:51:27;12.00;99.90
2999;DHT22;1509;51.964;7.628;2022-12-20T12:54:13;11.90;99.90
2999;DHT22;1509;51.964;7.628;2022-12-20T12:56:47;11.90;99.90
2999;DHT22;1509;51.964;7.628;2022-12-20T12:59:48;11.90;99.90
2999;DHT22;1509;51.964;7.628;2022-12-20T13:04:57;11.70;99.90
2999;DHT22;1509;51.964;7.628;2022-12-20T13:07:42;11.80;99.90
2999;DHT22;1509;51.964;7.628;2022-12-20T13:17:51;11.60;99.90
2999;DHT22;1509;51.964;7.628;2022-12-20T13:20:25;11.50;99.90
2999;DHT22;1509;51.964;7.628;2022-12-20T13:23:18;11.40;99.90
2999;DHT22;1509;51.964;7.628;2022-12-20T13:25:47;11.40;99.90
2999;DHT22;1509;51.964;7.628;2022-12-20T13:33:46;11.20;99.90
2999;DHT22;1509;51.964;7.628;2022-12-20T13:38:58;11.10;99.90
2999;DHT22;1509;51.964;7.628;2022-12-20T13:41:35;11.10;99.90
2999;DHT22;1509;51.964;7.628;2022-12-20T13:46:48;11.10;99.90
2999;DHT22;1509;51.964;7.628;2022-12-20T13:49:33;10.90;99.90
2999;DHT22;1509;51.964;7.628;2022-12-20T13:54:47;11.10;99.90
2999;DHT22;1509;51.964;7.628;2022-12-20T13:57:38;11.10;99.90
2999;DHT22;1509;51.964;7.628;2022-12-20T14:00:21;11.10;99.90
2999;DHT22;1509;51.964;7.628;2022-12-20T14:02:47;11.10;99.90
2999;DHT22;1509;51.964;7.628;2022-12-20T14:07:41;11.10;99.90
2999;DHT22;1509;51.964;7.628;2022-12-20T14:10:22;11.10;99.90
2999;DHT22;1509;51.964;7.628;2022-12-20T14:12:49;11.10;99.90
2999;DHT22;1509;51.964;7.628;2022-12-20T14:17:47;11.10;99.90
2999;DHT22;1509;51.964;7.628;2022-12-20T14:20:21;11.10;99.90
2999;DHT22;1509;51.964;7.628;2022-12-20T14:23:04;11.10;99.90
2999;DHT22;1509;51.964;7.628;2022-12-20T14:25:43;11.10;99.90
2999;DHT22;1509;51.964;7.628;2022-12-20T14:30:51;11.10;99.90
2999;DHT22;1509;51.964;7.628;2022-12-20T14:33:43;11.10;99.90
2999;DHT22;1509;51.964;7.628;2022-12-20T14:38:43;11.00;99.90
2999;DHT22;1509;51.964;7.628;2022-12-20T14:41:33;11.00;99.90
2999;DHT22;1509;51.964;7.628;2022-12-20T14:44:20;11.00;99.90
2999;DHT22;1509;51.964;7.628;2022-12-20T14:46:58;11.00;99.90
2999;DHT22;1509;51.964;7.628;2022-12-20T14:49:29;11.10;99.90
2999;DHT22;1509;51.964;7.628;2022-12-20T15:10:36;10.50;99.90
2999;DHT22;1509;51.964;7.628;2022-12-20T15:13:02;10.50;99.90
2999;DHT22;1509;51.964;7.628;2022-12-20T15:15:28;10.50;99.90
2999;DHT22;1509;51.964;7.628;2022-12-20T15:17:54;10.40;99.90
2999;DHT22;1509;51.964;7.628;2022-12-20T15:20:19;10.50;99.90
2999;DHT22;1509;51.964;7.628;2022-12-20T15:22:45;10.40;99.90
2999;DHT22;1509;51.964;7.628;2022-12-20T15:25:15;10.40;99.90
2999;DHT22;1509;51.964;7.628;2022-12-20T15:27:43;10.40;99.90
2999;DHT22;1509;51.964;7.628;2022-12-20T15:30:12;10.30;99.90
2999;DHT22;1509;51.964;7.628;2022-12-20T15:32:38;10.30;99.90
2999;DHT22;1509;51.964;7.628;2022-12-20T15:35:11;10.30;99.90
2999;DHT22;1509;51.964;7.628;2022-12-20T15:37:37;10.30;99.90
2999;DHT22;1509;51.964;7.628;2022-12-20T15:40:02;10.30;99.90
2999;DHT22;1509;51.964;7.628;2022-12-20T15:42:28;10.30;99.90
2999;DHT22;1509;51.964;7.628;2022-12-20T15:44:54;10.20;99.90
2999;DHT22;1509;51.964;7.628;2022-12-20T15:47:19;10.20;99.90
2999;DHT22;1509;51.964;7.628;2022-12-20T15:49:45;10.30;99.90
2999;DHT22;1509;51.964;7.628;2022-12-20T15:52:18;10.20;99.90
2999;DHT22;1509;51.964;7.628;2022-12-20T15:54:44;10.20;99.90
2999;DHT22;1509;51.964;7.628;2022-12-20T15:57:12;10.20;99.90
2999;DHT22;1509;51.964;7.628;2022-12-20T15:59:38;10.20;99.90
2999;DHT22;1509;51.964;7.628;2022-12-20T16:02:21;10.20;99.90
2999;DHT22;1509;51.964;7.628;2022-12-20T16:04:47;10.20;99.90
2999;DHT22;1509;51.964;7.628;2022-12-20T16:07:13;10.10;99.90
2999;DHT22;1509;51.964;7.628;2022-12-20T16:09:38;10.20;99.90
2999;DHT22;1509;51.964;7.628;2022-12-20T16:12:15;10.20;99.90
2999;DHT22;1509;51.964;7.628;2022-12-20T16:14:42;10.20;99.90
2999;DHT22;1509;51.964;7.628;2022-12-20T16:17:12;10.10;99.90
2999;DHT22;1509;51.964;7.628;2022-12-20T16:19:39;10.10;99.90
2999;DHT22;1509;51.964;7.628;2022-12-20T16:22:22;10.20;99.90
2999;DHT22;1509;51.964;7.628;2022-12-20T16:24:48;10.10;99.90
2999;DHT22;1509;51.964;7.628;2022-12-20T16:27:14;10.10;99.90
2999;DHT22;1509;51.964;7.628;2022-12-20T16:29:40;10.10;99.90
2999;DHT22;1509;51.964;7.628;2022-12-20T16:32:17;10.10;99.90
2999;DHT22;1509;51.964;7.628;2022-12-20T16:34:43;10.10;99.90
2999;DHT22;1509;51.964;7.628;2022-12-20T16:37:09;10.10;99.90
2999;DHT22;1509;51.964;7.628;2022-12-20T16:39:36;10.00;99.90
2999;DHT22;1509;51.964;7.628;2022-12-20T16:42:01;10.00;99.90
2999;DHT22;1509;51.964;7.628;2022-12-20T16:44:27;10.00;99.90
2999;DHT22;1509;51.964;7.628;2022-12-20T16:46:53;10.00;99.90
2999;DHT22;1509;51.964;7.628;2022-12-20T16:49:19;10.00;99.90
2999;DHT22;1509;51.964;7.628;2022-12-20T16:51:45;9.90;99.90
2999;DHT22;1509;51.964;7.628;2022-12-20T16:54:17;10.00;99.90
2999;DHT22;1509;51.964;7.628;2022-12-20T16:56:44;10.00;99.90
2999;DHT22;1509;51.964;7.628;2022-12-20T16:59:12;10.00;99.90
2999;DHT22;1509;51.964;7.628;2022-12-20T17:01:38;10.00;99.90
2999;DHT22;1509;51.964;7.628;2022-12-20T17:04:05;10.00;99.90
2999;DHT22;1509;51.964;7.628;2022-12-20T17:06:31;10.00;99.90
2999;DHT22;1509;51.964;7.628;2022-12-20T17:08:57;10.00;99.90
2999;DHT22;1509;51.964;7.628;2022-12-20T17:11:25;10.00;99.90
2999;DHT22;1509;51.964;7.628;2022-12-20T17:13:52;9.90;99.90
2999;DHT22;1509;51.964;7.628;2022-12-20T17:16:19;9.90;99.90
2999;DHT22;1509;51.964;7.628;2022-12-20T17:18:47;10.00;99.90
2999;DHT22;1509;51.964;7.628;2022-12-20T17:24:01;9.90;99.90
2999;DHT22;1509;51.964;7.628;2022-12-20T17:26:28;9.90;99.90
2999;DHT22;1509;51.964;7.628;2022-12-20T17:28:55;9.90;99.90
2999;DHT22;1509;51.964;7.628;2022-12-20T17:34:02;9.90;99.90
2999;DHT22;1509;51.964;7.628;2022-12-20T17:36:27;9.90;99.90
2999;DHT22;1509;51.964;7.628;2022-12-20T17:38:53;9.90;99.90
2999;DHT22;1509;51.964;7.628;2022-12-20T17:41:20;9.80;99.90
2999;DHT22;1509;51.964;7.628;2022-12-20T17:43:46;9.90;99.90
2999;DHT22;1509;51.964;7.628;2022-12-20T17:46:12;9.80;99.90
2999;DHT22;1509;51.964;7.628;2022-12-20T17:48:38;9.80;99.90
2999;DHT22;1509;51.964;7.628;2022-12-20T17:51:21;9.90;99.90
2999;DHT22;1509;51.964;7.628;2022-12-20T17:53:53;9.80;99.90
2999;DHT22;1509;51.964;7.628;2022-12-20T17:56:23;9.80;99.90
2999;DHT22;1509;51.964;7.628;2022-12-20T17:58:49;9.80;99.90
2999;DHT22;1509;51.964;7.628;2022-12-20T18:01:23;9.90;99.90
2999;DHT22;1509;51.964;7.628;2022-12-20T18:03:50;9.70;99.90
2999;DHT22;1509;51.964;7.628;2022-12-20T18:06:16;9.70;99.90
2999;DHT22;1509;51.964;7.628;2022-12-20T18:08:42;9.80;99.90
2999;DHT22;1509;51.964;7.628;2022-12-20T18:11:08;9.80;99.90
2999;DHT22;1509;51.964;7.628;2022-12-20T18:13:35;9.80;99.90
2999;DHT22;1509;51.964;7.628;2022-12-20T18:16:04;9.80;99.90
2999;DHT22;1509;51.964;7.628;2022-12-20T18:18:30;9.80;99.90
2999;DHT22;1509;51.964;7.628;2022-12-20T18:21:10;9.80;99.90